Time;durP1;ratioP1;P1;durP2;ratioP2;P2;SDS_P1;SDS_P2;PMS_P1;PMS_P2;Temp;Humidity;BMP_temperature;BMP_pressure;BME280_temperature;BME280_humidity;BME280_pressure;Samples;Min_cycle;Max_cycle;Signal;HPM_P1;HPM_P2
2023/09/18 00:01:15;;;;;;;989.47;911.27;;;17.70;99.90;;;;;;5112392;28;20807;-67
2023/09/18 00:03:42;;;;;;;992.60;915.80;;;17.70;99.90;;;;;;5112452;28;20451;-67
2023/09/18 00:06:11;;;;;;;990.23;913.07;;;17.70;99.90;;;;;;5098477;28;20454;-67
2023/09/18 00:08:40;;;;;;;988.03;912.37;;;17.70;99.90;;;;;;5091834;28;20449;-67
2023/09/18 00:11:09;;;;;;;984.20;910.23;;;17.60;99.90;;;;;;5091949;28;20457;-68
2023/09/18 00:13:36;;;;;;;972.40;900.20;;;17.60;99.90;;;;;;5092216;28;20649;-68
2023/09/18 00:16:03;;;;;;;978.90;906.20;;;17.60;99.90;;;;;;5092043;28;20812;-67
2023/09/18 00:18:30;;;;;;;973.53;899.80;;;17.50;99.90;;;;;;5091872;28;20511;-68
2023/09/18 00:20:57;;;;;;;981.60;907.80;;;17.50;99.90;;;;;;5091587;28;20461;-68
2023/09/18 00:23:24;;;;;;;975.17;902.10;;;17.40;99.90;;;;;;5092093;28;20538;-68
2023/09/18 00:25:51;;;;;;;970.57;894.47;;;17.40;99.90;;;;;;5092040;28;20483;-68
2023/09/18 00:28:19;;;;;;;973.77;898.97;;;17.40;99.90;;;;;;5091918;28;20531;-68
2023/09/18 00:30:51;;;;;;;966.03;890.37;;;17.30;99.90;;;;;;5091571;28;20455;-68
2023/09/18 00:33:19;;;;;;;969.97;892.23;;;17.30;99.90;;;;;;5091714;28;20452;-68
2023/09/18 00:35:47;;;;;;;974.77;895.43;;;17.30;99.90;;;;;;5091980;28;20445;-68
2023/09/18 00:38:14;;;;;;;979.90;896.60;;;17.20;99.90;;;;;;5091735;28;20570;-68
2023/09/18 00:40:41;;;;;;;982.40;900.70;;;17.10;99.90;;;;;;5091395;28;20469;-67
2023/09/18 00:43:09;;;;;;;979.20;898.73;;;17.10;99.90;;;;;;5091813;28;20450;-68
2023/09/18 00:45:41;;;;;;;975.40;894.47;;;17.10;99.90;;;;;;5091749;28;20459;-68
2023/09/18 00:48:08;;;;;;;983.63;902.80;;;17.10;99.90;;;;;;5091864;28;20429;-67
2023/09/18 00:50:35;;;;;;;980.43;899.90;;;17.00;99.90;;;;;;5091310;28;20934;-67
2023/09/18 00:53:03;;;;;;;986.30;904.67;;;17.00;99.90;;;;;;5094148;28;20957;-68
2023/09/18 00:55:32;;;;;;;980.63;898.27;;;17.00;99.90;;;;;;5095096;28;20479;-68
2023/09/18 00:57:59;;;;;;;985.93;900.00;;;17.00;99.90;;;;;;5095014;28;21033;-67
2023/09/18 01:00:26;;;;;;;989.43;902.90;;;17.10;99.90;;;;;;5094688;28;20525;-67
2023/09/18 01:02:54;;;;;;;989.47;901.80;;;17.00;99.90;;;;;;5095028;28;20446;-68
2023/09/18 01:05:21;;;;;;;987.23;899.10;;;17.00;99.90;;;;;;5104921;28;20511;-67
2023/09/18 01:07:48;;;;;;;976.27;889.17;;;16.90;99.90;;;;;;5115382;28;20454;-68
2023/09/18 01:10:16;;;;;;;990.40;901.50;;;16.90;99.90;;;;;;5114967;28;20949;-68
2023/09/18 01:12:47;;;;;;;1002.33;906.10;;;16.90;99.90;;;;;;5115266;28;20449;-67
2023/09/18 01:15:19;;;;;;;1003.13;907.67;;;17.00;99.90;;;;;;5115148;28;20466;-67
2023/09/18 01:17:47;;;;;;;1004.50;908.77;;;17.00;99.90;;;;;;5115030;28;20997;-67
2023/09/18 01:20:16;;;;;;;994.53;900.67;;;17.10;99.90;;;;;;5113366;28;20451;-68
2023/09/18 01:22:44;;;;;;;993.70;899.80;;;17.20;99.90;;;;;;5115124;28;20446;-67
2023/09/18 01:25:11;;;;;;;995.23;902.03;;;17.20;99.90;;;;;;5114998;28;20452;-67
2023/09/18 01:27:37;;;;;;;983.90;893.97;;;17.30;99.90;;;;;;5114886;28;20468;-67
2023/09/18 01:30:05;;;;;;;986.47;894.70;;;17.30;99.90;;;;;;5114727;28;20452;-67
2023/09/18 01:32:35;;;;;;;988.00;896.80;;;17.40;99.90;;;;;;5115036;28;20801;-67
2023/09/18 01:35:05;;;;;;;991.73;899.53;;;17.40;99.90;;;;;;5115348;28;20449;-67
2023/09/18 01:37:34;;;;;;;986.03;896.27;;;17.50;99.90;;;;;;5114704;28;20481;-67
2023/09/18 01:40:06;;;;;;;990.20;900.20;;;17.50;99.90;;;;;;5114531;28;20492;-67
2023/09/18 01:42:34;;;;;;;993.63;903.87;;;17.50;99.90;;;;;;5114946;28;20481;-68
2023/09/18 01:45:00;;;;;;;989.40;904.90;;;17.60;99.90;;;;;;5099391;28;20450;-67
2023/09/18 01:47:27;;;;;;;978.37;896.30;;;17.50;99.90;;;;;;5094331;28;20458;-67
2023/09/18 01:49:54;;;;;;;984.87;901.67;;;17.60;99.90;;;;;;5100710;28;20476;-68
2023/09/18 01:52:21;;;;;;;984.57;902.67;;;17.70;99.90;;;;;;5110634;28;20467;-67
2023/09/18 01:54:48;;;;;;;967.23;889.03;;;17.80;99.90;;;;;;5093961;28;20966;-67
2023/09/18 01:57:16;;;;;;;969.13;892.47;;;17.90;99.90;;;;;;5094161;28;20447;-68
2023/09/18 01:59:45;;;;;;;946.47;874.27;;;18.00;99.90;;;;;;5098029;28;20455;-67
2023/09/18 02:02:12;;;;;;;929.93;860.97;;;18.10;99.90;;;;;;5094081;28;20456;-67
2023/09/18 02:04:39;;;;;;;945.73;876.03;;;18.20;99.90;;;;;;5093701;28;20499;-68
2023/09/18 02:07:07;;;;;;;929.23;863.03;;;18.20;99.90;;;;;;5093821;28;20450;-67
2023/09/18 02:09:33;;;;;;;916.93;851.63;;;18.30;99.90;;;;;;5111576;28;20444;-67
2023/09/18 02:12:00;;;;;;;908.20;846.10;;;18.30;99.90;;;;;;5102353;28;20955;-68
2023/09/18 02:14:30;;;;;;;888.93;829.53;;;18.30;99.90;;;;;;5093806;28;20455;-68
2023/09/18 02:16:57;;;;;;;896.40;837.07;;;18.20;99.90;;;;;;5093518;28;20943;-67
2023/09/18 02:19:24;;;;;;;893.63;834.67;;;18.20;99.90;;;;;;5093790;28;20684;-67
2023/09/18 02:21:51;;;;;;;880.30;820.90;;;18.20;99.90;;;;;;5093373;28;21052;-67
2023/09/18 02:24:17;;;;;;;865.93;808.33;;;18.20;99.90;;;;;;5093580;28;20452;-67
2023/09/18 02:26:45;;;;;;;828.43;772.60;;;18.30;99.90;;;;;;5104047;28;20453;-67
2023/09/18 02:29:13;;;;;;;788.40;735.53;;;18.50;99.90;;;;;;5113535;28;20448;-67
2023/09/18 02:31:42;;;;;;;769.30;718.70;;;18.60;99.90;;;;;;5100229;28;20846;-66
2023/09/18 02:34:08;;;;;;;755.90;707.27;;;18.70;99.90;;;;;;5101666;28;20457;-66
2023/09/18 02:36:35;;;;;;;723.50;678.00;;;18.80;99.90;;;;;;5102761;28;20972;-65
2023/09/18 02:39:03;;;;;;;703.77;659.97;;;18.80;99.90;;;;;;5106108;28;20483;-66
2023/09/18 02:41:30;;;;;;;697.97;654.30;;;18.80;99.90;;;;;;5102337;28;20449;-66
2023/09/18 02:43:56;;;;;;;711.37;667.77;;;18.90;99.90;;;;;;5108979;28;20451;-65
2023/09/18 02:46:23;;;;;;;681.77;639.27;;;18.90;99.90;;;;;;5099088;28;20461;-66
2023/09/18 02:48:51;;;;;;;637.93;598.17;;;18.90;99.90;;;;;;5101567;28;20961;-66
2023/09/18 02:51:18;;;;;;;704.93;661.60;;;18.90;99.90;;;;;;5103543;28;20444;-67
2023/09/18 02:53:45;;;;;;;813.10;763.47;;;18.90;99.90;;;;;;5093939;28;20451;-64
2023/09/18 02:56:12;;;;;;;868.77;814.80;;;18.90;99.90;;;;;;5093028;28;20473;-64
2023/09/18 02:58:38;;;;;;;891.77;835.87;;;18.90;99.90;;;;;;5094897;28;20471;-64
2023/09/18 03:01:08;;;;;;;911.40;852.37;;;18.80;99.90;;;;;;5101641;28;20812;-64
2023/09/18 03:03:35;;;;;;;925.13;863.57;;;18.80;99.90;;;;;;5108271;28;20453;-64
2023/09/18 03:06:04;;;;;;;910.80;850.77;;;18.80;99.90;;;;;;5092887;28;20477;-64
2023/09/18 03:08:31;;;;;;;883.40;825.43;;;18.80;99.90;;;;;;5102988;28;20441;-64
2023/09/18 03:10:59;;;;;;;882.90;824.57;;;18.90;99.90;;;;;;5112401;28;20454;-64
2023/09/18 03:13:28;;;;;;;852.63;797.87;;;18.90;99.90;;;;;;5110329;28;20456;-64
2023/09/18 03:15:55;;;;;;;870.37;814.37;;;18.90;99.90;;;;;;5091928;28;20453;-64
2023/09/18 03:18:21;;;;;;;853.80;798.53;;;18.90;99.90;;;;;;5093744;28;20478;-64
2023/09/18 03:20:49;;;;;;;863.33;808.27;;;19.00;99.90;;;;;;5104626;28;20456;-64
2023/09/18 03:23:17;;;;;;;874.13;818.83;;;19.00;99.90;;;;;;5098378;28;20442;-64
2023/09/18 03:25:44;;;;;;;877.67;821.57;;;19.00;99.90;;;;;;5112822;28;20467;-64
2023/09/18 03:28:11;;;;;;;885.57;827.50;;;19.00;99.90;;;;;;5112291;28;20454;-64
2023/09/18 03:30:38;;;;;;;900.60;839.80;;;18.90;99.90;;;;;;5112338;28;20451;-64
2023/09/18 03:33:05;;;;;;;906.87;845.97;;;18.90;99.90;;;;;;5112353;28;20456;-64
2023/09/18 03:35:33;;;;;;;907.70;846.20;;;18.90;99.90;;;;;;5112875;28;20442;-64
2023/09/18 03:38:00;;;;;;;897.73;836.83;;;18.80;99.90;;;;;;5108079;28;20467;-65
2023/09/18 03:40:28;;;;;;;879.60;822.40;;;18.90;99.90;;;;;;5092361;28;20448;-65
2023/09/18 03:42:55;;;;;;;874.57;818.80;;;18.90;99.90;;;;;;5093651;28;20962;-64
2023/09/18 03:45:22;;;;;;;838.00;785.30;;;19.00;99.90;;;;;;5106102;28;20818;-64
2023/09/18 03:47:49;;;;;;;826.70;775.23;;;19.00;99.90;;;;;;5106813;28;20459;-65
2023/09/18 03:50:16;;;;;;;828.93;778.43;;;19.00;99.90;;;;;;5093298;28;20853;-65
2023/09/18 03:52:43;;;;;;;815.80;766.83;;;19.00;99.90;;;;;;5093156;28;20460;-65
2023/09/18 03:55:10;;;;;;;795.10;748.10;;;19.10;99.90;;;;;;5093062;28;20454;-65
2023/09/18 03:57:40;;;;;;;768.13;723.90;;;19.10;99.90;;;;;;5108671;28;20454;-65
2023/09/18 04:00:08;;;;;;;729.70;689.10;;;19.10;99.90;;;;;;5111090;28;20480;-65
2023/09/18 04:02:35;;;;;;;670.90;634.60;;;19.20;99.90;;;;;;5100828;28;20520;-65
2023/09/18 04:05:03;;;;;;;704.03;665.57;;;19.30;99.90;;;;;;5112488;28;20458;-66
2023/09/18 04:07:31;;;;;;;695.37;657.33;;;19.20;99.90;;;;;;5099906;28;20487;-68
2023/09/18 04:09:57;;;;;;;691.10;653.77;;;19.20;99.90;;;;;;5091735;28;20446;-66
2023/09/18 04:12:24;;;;;;;705.43;668.23;;;19.30;99.90;;;;;;5091916;28;20463;-67
2023/09/18 04:14:52;;;;;;;711.37;673.57;;;19.20;99.90;;;;;;5092103;28;20461;-67
2023/09/18 04:17:20;;;;;;;740.63;700.27;;;19.10;99.90;;;;;;5092452;28;20817;-67
2023/09/18 04:19:48;;;;;;;725.83;685.70;;;19.10;99.90;;;;;;5104888;28;20478;-67
2023/09/18 04:22:15;;;;;;;768.93;725.33;;;19.10;99.90;;;;;;5112146;28;20457;-67
2023/09/18 04:24:42;;;;;;;797.97;751.77;;;19.00;99.90;;;;;;5112122;28;20450;-68
2023/09/18 04:27:09;;;;;;;834.63;784.10;;;18.90;99.90;;;;;;5113806;28;20454;-67
2023/09/18 04:29:36;;;;;;;860.47;806.00;;;18.80;99.90;;;;;;5116022;28;20451;-67
2023/09/18 04:32:06;;;;;;;887.33;831.00;;;18.80;99.90;;;;;;5115981;28;20990;-67
2023/09/18 04:34:34;;;;;;;883.70;827.30;;;18.70;99.90;;;;;;5115787;28;20454;-67
2023/09/18 04:37:03;;;;;;;877.33;821.00;;;18.70;99.90;;;;;;5114992;28;20824;-65
2023/09/18 04:39:31;;;;;;;886.67;829.47;;;18.60;99.90;;;;;;5115455;28;20530;-66
2023/09/18 04:41:58;;;;;;;904.93;845.10;;;18.50;99.90;;;;;;5105785;28;20490;-67
2023/09/18 04:44:24;;;;;;;905.40;846.70;;;18.50;99.90;;;;;;5113071;28;20446;-67
2023/09/18 04:46:51;;;;;;;887.43;829.43;;;18.60;99.90;;;;;;5113931;28;20454;-67
2023/09/18 04:49:20;;;;;;;884.63;828.07;;;18.60;99.90;;;;;;5115632;28;20519;-67
2023/09/18 04:51:46;;;;;;;867.70;811.40;;;18.50;99.90;;;;;;5113601;28;20445;-66
2023/09/18 04:54:15;;;;;;;887.33;829.47;;;18.60;99.90;;;;;;5115599;28;20941;-67
2023/09/18 04:56:42;;;;;;;881.70;825.60;;;18.50;99.90;;;;;;5109025;28;20447;-67
2023/09/18 04:59:09;;;;;;;897.40;838.00;;;18.50;99.90;;;;;;5095077;28;20820;-67
2023/09/18 05:01:35;;;;;;;896.57;836.77;;;18.50;99.90;;;;;;5094809;28;20450;-67
2023/09/18 05:04:02;;;;;;;878.07;819.77;;;18.60;99.90;;;;;;5095110;28;20973;-67
2023/09/18 05:06:30;;;;;;;871.60;814.10;;;18.60;99.90;;;;;;5094898;28;20943;-67
2023/09/18 05:08:57;;;;;;;854.70;799.60;;;18.70;99.90;;;;;;5095034;28;20450;-67
2023/09/18 05:11:24;;;;;;;855.47;800.00;;;18.60;99.90;;;;;;5094761;28;20936;-67
2023/09/18 05:13:52;;;;;;;863.87;806.97;;;18.60;99.90;;;;;;5094950;28;20893;-67
2023/09/18 05:16:19;;;;;;;893.07;832.93;;;18.50;99.90;;;;;;5094875;28;20449;-65
2023/09/18 05:18:46;;;;;;;882.40;822.93;;;18.40;99.90;;;;;;5097785;28;20484;-67
2023/09/18 05:21:13;;;;;;;891.43;829.40;;;18.40;99.90;;;;;;5110934;28;20935;-67
2023/09/18 05:23:41;;;;;;;890.03;827.47;;;18.40;99.90;;;;;;5107673;28;20462;-68
2023/09/18 05:26:08;;;;;;;891.17;829.30;;;18.40;99.90;;;;;;5115020;28;20944;-67
2023/09/18 05:28:35;;;;;;;897.83;835.73;;;18.40;99.90;;;;;;5115045;28;20663;-67
2023/09/18 05:31:02;;;;;;;888.57;827.67;;;18.40;99.90;;;;;;5100605;28;20798;-67
2023/09/18 05:33:29;;;;;;;883.70;824.77;;;18.30;99.90;;;;;;5104938;28;20445;-66
2023/09/18 05:35:56;;;;;;;886.53;827.13;;;18.40;99.90;;;;;;5108532;28;20941;-66
2023/09/18 05:38:22;;;;;;;881.37;823.20;;;18.40;99.90;;;;;;5108882;28;20459;-66
2023/09/18 05:40:51;;;;;;;861.23;805.73;;;18.40;99.90;;;;;;5099150;28;20461;-66
2023/09/18 05:43:18;;;;;;;836.37;783.73;;;18.50;99.90;;;;;;5104659;28;20449;-65
2023/09/18 05:45:44;;;;;;;822.70;772.10;;;18.50;99.90;;;;;;5102134;28;20482;-67
2023/09/18 05:48:11;;;;;;;792.60;745.20;;;18.60;99.90;;;;;;5096139;28;20457;-67
2023/09/18 05:50:41;;;;;;;737.40;695.10;;;18.70;99.90;;;;;;5111864;28;20445;-67
2023/09/18 05:53:08;;;;;;;674.43;637.20;;;18.80;99.90;;;;;;5103150;28;20945;-66
2023/09/18 05:55:35;;;;;;;643.00;608.47;;;18.90;99.90;;;;;;5109846;28;20444;-67
2023/09/18 05:58:06;;;;;;;567.60;539.20;;;19.00;99.90;;;;;;5110399;28;20454;-68
2023/09/18 06:00:33;;;;;;;534.10;508.70;;;19.10;99.90;;;;;;5102336;28;20489;-67
2023/09/18 06:03:00;;;;;;;460.67;439.97;;;19.20;99.90;;;;;;5097098;28;20448;-67
2023/09/18 06:05:27;;;;;;;505.73;482.90;;;19.30;99.90;;;;;;5105819;28;20458;-67
2023/09/18 06:07:54;;;;;;;442.20;422.60;;;19.30;99.90;;;;;;5096862;28;20457;-67
2023/09/18 06:10:21;;;;;;;452.83;433.57;;;19.30;99.90;;;;;;5106453;28;20470;-67
2023/09/18 06:12:48;;;;;;;394.80;378.43;;;19.30;99.90;;;;;;5101802;28;20446;-66
2023/09/18 06:15:16;;;;;;;435.27;416.97;;;19.40;99.90;;;;;;5104637;28;20804;-65
2023/09/18 06:17:44;;;;;;;443.03;424.73;;;19.40;99.90;;;;;;5105041;28;20458;-66
2023/09/18 06:20:13;;;;;;;387.80;371.70;;;19.40;99.90;;;;;;5093775;28;20932;-67
2023/09/18 06:22:41;;;;;;;402.27;386.37;;;19.40;99.90;;;;;;5107010;28;20937;-66
2023/09/18 06:25:09;;;;;;;406.53;390.53;;;19.40;99.90;;;;;;5113742;28;20466;-65
2023/09/18 06:27:37;;;;;;;360.63;346.93;;;19.50;99.90;;;;;;5114158;28;20449;-65
2023/09/18 06:30:04;;;;;;;353.67;340.50;;;19.60;99.90;;;;;;5113938;28;20917;-65
2023/09/18 06:32:32;;;;;;;336.87;324.50;;;19.60;99.90;;;;;;5100617;28;20444;-69
2023/09/18 06:34:59;;;;;;;304.53;293.23;;;19.60;99.90;;;;;;5110524;28;20462;-69
2023/09/18 06:37:26;;;;;;;348.83;335.57;;;19.70;99.90;;;;;;5111090;28;21036;-69
2023/09/18 06:39:53;;;;;;;363.47;349.57;;;19.70;99.90;;;;;;5102115;28;20544;-68
2023/09/18 06:42:20;;;;;;;355.87;342.17;;;19.80;99.90;;;;;;5095225;28;20445;-69
2023/09/18 06:44:47;;;;;;;349.63;336.23;;;19.70;99.90;;;;;;5093122;28;20923;-68
2023/09/18 06:47:14;;;;;;;326.67;314.37;;;19.80;99.90;;;;;;5110199;28;20451;-69
2023/09/18 06:49:42;;;;;;;344.63;331.60;;;19.80;99.90;;;;;;5112034;28;20452;-69
2023/09/18 06:52:10;;;;;;;338.17;325.43;;;19.90;99.90;;;;;;5102229;28;20451;-69
2023/09/18 06:54:37;;;;;;;326.80;314.93;;;20.00;99.90;;;;;;5094029;28;20460;-68
2023/09/18 06:57:04;;;;;;;355.87;342.17;;;20.00;99.90;;;;;;5098051;28;20824;-68
2023/09/18 06:59:33;;;;;;;343.80;329.27;;;20.00;99.90;;;;;;5101951;28;20456;-68
2023/09/18 07:02:00;;;;;;;385.50;370.10;;;20.10;99.90;;;;;;5094549;28;20608;-66
2023/09/18 07:04:27;;;;;;;295.03;284.43;;;20.20;99.90;;;;;;5106031;28;20454;-65
2023/09/18 07:06:56;;;;;;;214.40;206.93;;;20.20;99.90;;;;;;5102461;28;20448;-65
2023/09/18 07:09:25;;;;;;;233.97;226.23;;;20.20;99.90;;;;;;5096416;28;20480;-65
2023/09/18 07:11:52;;;;;;;168.17;162.40;;;20.30;99.90;;;;;;5112538;28;20458;-65
2023/09/18 07:14:19;;;;;;;203.48;196.68;;;20.30;99.90;;;;;;5111933;28;20454;-66
2023/09/18 07:16:46;;;;;;;95.70;91.90;;;20.40;99.90;;;;;;5112246;28;20606;-68
2023/09/18 07:19:16;;;;;;;30.87;28.93;;;20.50;99.90;;;;;;5112335;28;20459;-68
2023/09/18 07:21:44;;;;;;;17.77;16.37;;;20.60;99.90;;;;;;5112340;28;20446;-69
2023/09/18 07:24:16;;;;;;;15.07;13.97;;;20.70;99.90;;;;;;5112698;28;20453;-69
2023/09/18 07:26:45;;;;;;;11.10;10.13;;;20.80;99.90;;;;;;5112265;28;20961;-69
2023/09/18 07:29:13;;;;;;;9.83;6.33;;;20.90;99.90;;;;;;5112532;28;20809;-68
2023/09/18 07:31:40;;;;;;;4.87;3.80;;;20.90;99.90;;;;;;5112385;28;20484;-68
2023/09/18 07:34:07;;;;;;;10.90;5.50;;;20.90;99.90;;;;;;5112493;28;20452;-69
2023/09/18 07:36:33;;;;;;;7.10;5.33;;;20.90;99.90;;;;;;5094143;28;20600;-68
2023/09/18 07:39:00;;;;;;;7.43;5.90;;;21.00;99.90;;;;;;5112489;28;20541;-69
2023/09/18 07:41:28;;;;;;;6.80;3.50;;;21.00;99.90;;;;;;5112460;28;20479;-69
2023/09/18 07:43:57;;;;;;;6.30;4.47;;;21.10;99.90;;;;;;5112730;28;20448;-68
2023/09/18 07:46:24;;;;;;;5.03;2.40;;;21.10;99.90;;;;;;5112734;28;20458;-69
2023/09/18 07:48:50;;;;;;;6.13;2.90;;;21.20;99.90;;;;;;5112395;28;20546;-69
2023/09/18 07:51:17;;;;;;;6.40;2.30;;;21.30;99.90;;;;;;5112310;28;20451;-69
2023/09/18 07:53:44;;;;;;;5.30;3.10;;;21.40;99.90;;;;;;5112598;28;20491;-69
2023/09/18 07:56:11;;;;;;;7.37;2.60;;;21.50;99.90;;;;;;5112963;28;20446;-68
2023/09/18 07:58:39;;;;;;;6.80;2.53;;;21.50;99.90;;;;;;5112535;28;20987;-69
2023/09/18 08:01:09;;;;;;;11.10;2.70;;;21.40;99.90;;;;;;5113753;28;20567;-68
2023/09/18 08:03:36;;;;;;;8.27;2.30;;;21.30;99.90;;;;;;5116587;28;20503;-69
2023/09/18 08:06:04;;;;;;;6.90;2.30;;;21.40;99.90;;;;;;5115966;28;20447;-69
2023/09/18 08:08:33;;;;;;;8.37;2.37;;;21.40;99.90;;;;;;5116504;28;20507;-69
2023/09/18 08:11:03;;;;;;;6.53;2.87;;;21.40;99.90;;;;;;5098556;28;20442;-69
2023/09/18 08:13:29;;;;;;;6.27;2.23;;;21.50;99.90;;;;;;5116560;28;20479;-68
2023/09/18 08:15:58;;;;;;;7.97;2.47;;;21.60;99.90;;;;;;5116254;28;20452;-68
2023/09/18 08:18:26;;;;;;;9.27;3.23;;;21.70;99.90;;;;;;5116602;28;20458;-68
2023/09/18 08:20:54;;;;;;;4.87;2.33;;;21.70;99.90;;;;;;5116248;28;20477;-68
2023/09/18 08:23:21;;;;;;;12.00;2.93;;;21.90;99.90;;;;;;5116399;28;20452;-68
2023/09/18 08:25:48;;;;;;;7.40;2.20;;;22.00;99.90;;;;;;5116231;28;20542;-68
2023/09/18 08:28:16;;;;;;;6.30;2.60;;;22.10;99.90;;;;;;5116120;28;20450;-69
2023/09/18 08:30:46;;;;;;;6.50;2.53;;;21.90;99.90;;;;;;5116105;28;20440;-68
2023/09/18 08:33:15;;;;;;;5.97;2.10;;;21.90;99.90;;;;;;5116417;28;20946;-68
2023/09/18 08:35:41;;;;;;;6.23;2.07;;;21.80;99.90;;;;;;5116198;28;20457;-68
2023/09/18 08:38:08;;;;;;;7.33;2.00;;;21.70;99.90;;;;;;5115984;28;20828;-68
2023/09/18 08:40:35;;;;;;;6.77;2.90;;;21.70;99.90;;;;;;5115713;28;20479;-68
2023/09/18 08:43:04;;;;;;;8.73;1.90;;;21.70;99.90;;;;;;5115889;28;20448;-68
2023/09/18 08:45:38;;;;;;;7.37;2.10;;;21.80;99.90;;;;;;5115828;28;20504;-68
2023/09/18 08:48:06;;;;;;;7.03;2.00;;;21.80;99.90;;;;;;5115984;28;20482;-69
2023/09/18 08:50:35;;;;;;;6.33;1.87;;;21.80;99.90;;;;;;5115533;28;20450;-69
2023/09/18 08:53:02;;;;;;;8.40;2.60;;;22.00;99.90;;;;;;5116319;28;20537;-69
2023/09/18 08:55:30;;;;;;;7.10;2.20;;;22.20;99.90;;;;;;5115601;28;20450;-68
2023/09/18 08:57:59;;;;;;;5.23;1.53;;;22.30;99.90;;;;;;5115849;28;20455;-68
2023/09/18 09:00:26;;;;;;;6.37;2.40;;;22.20;99.90;;;;;;5115555;28;20503;-69
2023/09/18 09:02:54;;;;;;;4.80;1.80;;;22.50;99.90;;;;;;5115529;28;20450;-69
2023/09/18 09:05:21;;;;;;;5.50;1.70;;;22.70;99.90;;;;;;5115581;28;20494;-69
2023/09/18 09:07:49;;;;;;;9.47;4.47;;;23.00;99.90;;;;;;5115506;28;20454;-69
2023/09/18 09:10:16;;;;;;;8.87;3.80;;;23.30;99.90;;;;;;5115188;28;20446;-68
2023/09/18 09:12:54;;;;;;;7.63;2.33;;;23.40;99.90;;;;;;5114846;28;20456;-69
2023/09/18 09:15:21;;;;;;;9.63;2.10;;;23.50;99.90;;;;;;5115416;28;20470;-68
2023/09/18 09:17:48;;;;;;;7.27;1.93;;;23.50;99.70;;;;;;5115183;28;20456;-69
2023/09/18 09:20:17;;;;;;;8.23;2.30;;;23.50;99.90;;;;;;5115009;28;20475;-69
2023/09/18 09:22:44;;;;;;;7.03;2.17;;;23.60;97.20;;;;;;5115120;28;20447;-69
2023/09/18 09:25:28;;;;;;;9.13;2.13;;;23.60;96.60;;;;;;5115314;28;20453;-69
2023/09/18 09:27:55;;;;;;;4.93;2.13;;;23.80;96.70;;;;;;5112944;28;20535;-68
2023/09/18 09:30:24;;;;;;;6.70;2.40;;;23.80;96.70;;;;;;5114965;28;20443;-69
2023/09/18 09:32:52;;;;;;;10.30;4.03;;;24.00;96.80;;;;;;5114932;28;20797;-69
2023/09/18 09:35:30;;;;;;;4.50;1.67;;;24.00;96.80;;;;;;5114965;28;20451;-68
2023/09/18 09:38:00;;;;;;;5.07;1.63;;;23.70;96.60;;;;;;5115174;28;20448;-69
2023/09/18 09:40:30;;;;;;;5.53;1.83;;;23.50;96.60;;;;;;5114782;28;20476;-68
2023/09/18 09:43:01;;;;;;;6.90;1.70;;;23.40;96.50;;;;;;5114801;28;20508;-68
2023/09/18 09:45:30;;;;;;;6.30;2.00;;;23.40;96.50;;;;;;5114693;28;20451;-69
2023/09/18 09:47:58;;;;;;;5.10;1.70;;;23.70;96.70;;;;;;5114881;28;20448;-69
2023/09/18 09:50:26;;;;;;;5.30;1.87;;;24.10;96.80;;;;;;5114574;28;20447;-68
2023/09/18 09:52:55;;;;;;;11.50;2.17;;;24.30;94.30;;;;;;5114618;28;20467;-69
2023/09/18 09:55:25;;;;;;;5.77;1.73;;;24.10;93.40;;;;;;5114639;28;20493;-69
2023/09/18 09:57:57;;;;;;;6.90;1.93;;;23.90;93.30;;;;;;5114370;28;20931;-68
2023/09/18 10:00:30;;;;;;;7.63;2.20;;;24.00;94.90;;;;;;5114298;28;21040;-69
2023/09/18 10:03:06;;;;;;;7.27;1.70;;;24.30;92.50;;;;;;5114410;28;20448;-68
2023/09/18 10:05:34;;;;;;;6.77;2.30;;;24.40;93.50;;;;;;5114522;28;20452;-68
2023/09/18 10:08:07;;;;;;;7.00;2.50;;;24.20;90.80;;;;;;5114281;28;20939;-70
2023/09/18 10:10:38;;;;;;;9.30;1.80;;;24.30;90.00;;;;;;5113922;28;20454;-68
2023/09/18 10:13:10;;;;;;;9.07;1.80;;;24.60;90.10;;;;;;5114438;28;20448;-68
2023/09/18 10:15:39;;;;;;;5.93;1.90;;;25.00;90.20;;;;;;5114373;28;20532;-69
2023/09/18 10:18:11;;;;;;;6.30;1.50;;;25.40;77.80;;;;;;5114195;28;20456;-70
2023/09/18 10:20:45;;;;;;;4.40;1.50;;;26.00;67.90;;;;;;5113799;28;20504;-69
2023/09/18 10:23:27;;;;;;;8.10;1.70;;;26.50;67.40;;;;;;5114149;28;20447;-69
2023/09/18 10:26:04;;;;;;;5.40;1.90;;;26.90;63.70;;;;;;5113966;28;20947;-70
2023/09/18 10:28:33;;;;;;;8.67;2.20;;;26.60;59.10;;;;;;5113828;28;20463;-70
2023/09/18 10:31:03;;;;;;;7.23;1.60;;;26.40;58.90;;;;;;5113675;28;20801;-68
2023/09/18 10:33:31;;;;;;;4.77;1.77;;;26.20;64.10;;;;;;5113744;28;20449;-68
2023/09/18 10:36:00;;;;;;;7.67;2.00;;;26.40;58.90;;;;;;5113930;28;20451;-68
2023/09/18 10:38:28;;;;;;;7.10;2.07;;;26.50;59.80;;;;;;5113710;28;20459;-70
2023/09/18 10:40:58;;;;;;;5.30;1.63;;;26.30;58.80;;;;;;5113418;28;20479;-71
2023/09/18 10:43:25;;;;;;;6.13;2.10;;;26.20;58.30;;;;;;5113686;28;20452;-68
2023/09/18 10:45:54;;;;;;;4.50;1.70;;;26.30;58.80;;;;;;5113860;28;20448;-68
2023/09/18 10:48:23;;;;;;;4.60;1.50;;;26.70;59.10;;;;;;5113768;28;20449;-70
2023/09/18 10:50:51;;;;;;;6.40;1.77;;;26.50;56.80;;;;;;5113501;28;20441;-68
2023/09/18 10:53:19;;;;;;;5.60;1.85;;;26.90;50.40;;;;;;5112976;28;20457;-68
2023/09/18 10:55:46;;;;;;;7.07;2.03;;;26.80;50.30;;;;;;5112440;28;20443;-68
2023/09/18 10:58:23;;;;;;;5.80;1.67;;;27.50;50.80;;;;;;5113381;28;20191;-70
2023/09/18 11:00:50;;;;;;;5.17;1.63;;;27.50;41.70;;;;;;5113059;28;20482;-68
2023/09/18 11:03:23;;;;;;;5.50;1.57;;;27.70;41.90;;;;;;5113499;28;20448;-69
2023/09/18 11:06:04;;;;;;;6.47;1.97;;;27.50;41.70;;;;;;5113603;28;20448;-69
2023/09/18 11:08:35;;;;;;;5.40;2.07;;;27.40;41.70;;;;;;5112981;28;20451;-68
2023/09/18 11:11:11;;;;;;;5.43;2.20;;;27.50;41.70;;;;;;5112882;28;20440;-68
2023/09/18 11:13:40;;;;;;;5.70;2.23;;;28.30;42.30;;;;;;5113099;28;20505;-68
2023/09/18 11:16:38;;;;;;;5.40;1.60;;;29.20;32.60;;;;;;5113242;28;20445;-68
2023/09/18 11:19:13;;;;;;;5.93;1.90;;;28.40;33.10;;;;;;5112847;28;20452;-67
2023/09/18 11:21:41;;;;;;;6.90;2.60;;;26.90;32.10;;;;;;5112765;28;20506;-68
2023/09/18 11:24:10;;;;;;;6.10;1.87;;;26.40;41.00;;;;;;5113056;28;20444;-68
2023/09/18 11:26:40;;;;;;;6.10;2.10;;;26.10;40.70;;;;;;5112888;28;20461;-69
2023/09/18 11:29:10;;;;;;;10.17;2.13;;;26.60;41.10;;;;;;5113241;28;20498;-68
2023/09/18 11:31:45;;;;;;;7.63;2.53;;;26.90;32.00;;;;;;5112627;28;20448;-68
2023/09/18 11:34:20;;;;;;;6.60;2.27;;;27.30;29.40;;;;;;5112963;28;20541;-69
2023/09/18 11:36:47;;;;;;;7.70;1.97;;;27.50;29.90;;;;;;5112288;28;20452;-70
2023/09/18 11:39:33;;;;;;;5.13;1.63;;;28.80;25.40;;;;;;5110443;28;20470;-68
2023/09/18 11:42:08;;;;;;;6.80;2.00;;;29.30;18.20;;;;;;5112022;28;20476;-69
2023/09/18 11:44:40;;;;;;;5.83;2.37;;;29.70;18.40;;;;;;5112597;28;20854;-68
2023/09/18 11:47:12;;;;;;;7.17;1.90;;;30.20;13.30;;;;;;5112458;28;20878;-68
2023/09/18 11:49:42;;;;;;;7.73;1.80;;;30.00;10.90;;;;;;5112216;28;20452;-68
2023/09/18 11:52:10;;;;;;;7.10;1.90;;;30.60;5.40;;;;;;5112189;28;20444;-68
2023/09/18 11:54:40;;;;;;;7.40;2.53;;;29.60;7.40;;;;;;5112018;28;20448;-68
2023/09/18 11:57:08;;;;;;;6.07;2.23;;;29.40;6.20;;;;;;5112120;28;20427;-69
2023/09/18 11:59:41;;;;;;;8.30;2.23;;;28.60;10.10;;;;;;5112208;28;20450;-69
2023/09/18 12:02:08;;;;;;;8.27;2.10;;;28.30;11.80;;;;;;5112440;28;20830;-70
2023/09/18 12:04:35;;;;;;;6.57;2.38;;;28.00;9.80;;;;;;5111624;28;20451;-69
2023/09/18 12:07:05;;;;;;;6.60;2.33;;;27.40;17.00;;;;;;5112140;28;20688;-72
2023/09/18 12:09:32;;;;;;;7.50;2.27;;;28.60;17.70;;;;;;5112873;28;20451;-69
2023/09/18 12:12:03;;;;;;;6.97;1.80;;;29.00;10.30;;;;;;5112824;28;20456;-69
2023/09/18 12:14:31;;;;;;;7.27;2.00;;;28.80;10.20;;;;;;5112941;28;20448;-70
2023/09/18 12:16:59;;;;;;;6.43;1.90;;;28.80;10.20;;;;;;5113139;28;20824;-69
2023/09/18 12:19:26;;;;;;;7.33;2.20;;;28.80;10.00;;;;;;5112670;28;20928;-69
2023/09/18 12:21:53;;;;;;;6.63;1.83;;;28.20;9.90;;;;;;5112525;28;20468;-69
2023/09/18 12:24:24;;;;;;;6.20;1.90;;;27.50;9.50;;;;;;5113051;28;20804;-69
2023/09/18 12:26:51;;;;;;;8.07;2.63;;;27.50;14.70;;;;;;5112203;28;20454;-71
2023/09/18 12:29:18;;;;;;;7.20;2.57;;;27.10;16.90;;;;;;5112736;28;20194;-69